Terminal Aerodrome Forecast
Issued by NWS

Home | Current Version | Previous Version | Graphics & Text | Print | Product List | Glossary On
Versions: 1 2 3 4 5 6 7 8 9 10 11 12 13 14 15 16 17 18
862
FTUS43 KICT 250817 AAA
TAFHUT
TAF AMD
KHUT 250817Z 2508/2606 07009KT P6SM VCTS BKN090CB
      TEMPO 2508/2510 VRB20G30KT 3SM +TSRA SCT015 BKN040CB
     FM251200 09007KT P6SM SCT040 BKN070
     FM251800 15013KT P6SM SCT150 BKN200
     FM260000 15006KT P6SM SCT150=

USA.gov is the U.S. government's official web portal to all federal, state and local government web resources and services.